sensor_id;sensor_type;location;lat;lon;timestamp;pressure;altitude;pressure_sealevel;temperature;humidity
49457;BME280;35352;51.480;-0.862;2023-03-12T00:01:15;100149.43;;;8.44;100.00
49457;BME280;35352;51.480;-0.862;2023-03-12T00:03:44;100153.00;;;8.80;100.00
49457;BME280;35352;51.480;-0.862;2023-03-12T00:06:11;100152.33;;;9.13;100.00
49457;BME280;35352;51.480;-0.862;2023-03-12T00:08:39;100150.62;;;8.48;100.00
49457;BME280;35352;51.480;-0.862;2023-03-12T00:11:15;100147.90;;;8.46;100.00
49457;BME280;35352;51.480;-0.862;2023-03-12T00:13:43;100152.88;;;7.72;100.00
49457;BME280;35352;51.480;-0.862;2023-03-12T00:16:12;100151.49;;;8.94;100.00
49457;BME280;35352;51.480;-0.862;2023-03-12T00:18:41;100154.02;;;8.68;100.00
49457;BME280;35352;51.480;-0.862;2023-03-12T00:21:13;100153.30;;;8.40;100.00
49457;BME280;35352;51.480;-0.862;2023-03-12T00:23:40;100160.28;;;8.40;100.00
49457;BME280;35352;51.480;-0.862;2023-03-12T00:26:09;100153.52;;;8.76;100.00
49457;BME280;35352;51.480;-0.862;2023-03-12T00:28:38;100161.64;;;8.62;100.00
49457;BME280;35352;51.480;-0.862;2023-03-12T00:31:16;100156.82;;;9.28;100.00
49457;BME280;35352;51.480;-0.862;2023-03-12T00:33:44;100158.89;;;8.98;100.00
49457;BME280;35352;51.480;-0.862;2023-03-12T00:36:13;100158.86;;;9.56;100.00
49457;BME280;35352;51.480;-0.862;2023-03-12T00:38:41;100161.47;;;9.09;100.00
49457;BME280;35352;51.480;-0.862;2023-03-12T00:41:13;100162.88;;;9.37;100.00
49457;BME280;35352;51.480;-0.862;2023-03-12T00:43:40;100163.41;;;8.70;100.00
49457;BME280;35352;51.480;-0.862;2023-03-12T00:46:07;100157.11;;;8.72;100.00
49457;BME280;35352;51.480;-0.862;2023-03-12T00:48:35;100156.94;;;8.61;100.00
49457;BME280;35352;51.480;-0.862;2023-03-12T00:51:13;100161.73;;;8.00;100.00
49457;BME280;35352;51.480;-0.862;2023-03-12T00:53:41;100159.27;;;7.26;100.00
49457;BME280;35352;51.480;-0.862;2023-03-12T00:56:08;100157.85;;;6.92;100.00
49457;BME280;35352;51.480;-0.862;2023-03-12T00:58:35;100148.49;;;6.87;100.00
49457;BME280;35352;51.480;-0.862;2023-03-12T01:01:13;100141.68;;;6.49;100.00
49457;BME280;35352;51.480;-0.862;2023-03-12T01:03:41;100141.85;;;5.97;100.00
49457;BME280;35352;51.480;-0.862;2023-03-12T01:06:08;100149.63;;;6.45;100.00
49457;BME280;35352;51.480;-0.862;2023-03-12T01:08:36;100148.94;;;5.88;100.00
49457;BME280;35352;51.480;-0.862;2023-03-12T01:11:13;100145.79;;;6.62;100.00
49457;BME280;35352;51.480;-0.862;2023-03-12T01:13:42;100148.67;;;6.55;100.00
49457;BME280;35352;51.480;-0.862;2023-03-12T01:16:09;100145.95;;;6.79;100.00
49457;BME280;35352;51.480;-0.862;2023-03-12T01:18:37;100146.14;;;7.36;100.00
49457;BME280;35352;51.480;-0.862;2023-03-12T01:21:13;100151.17;;;7.80;100.00
49457;BME280;35352;51.480;-0.862;2023-03-12T01:23:40;100151.56;;;7.30;100.00
49457;BME280;35352;51.480;-0.862;2023-03-12T01:26:07;100151.22;;;7.28;100.00
49457;BME280;35352;51.480;-0.862;2023-03-12T01:28:35;100151.38;;;7.21;100.00
49457;BME280;35352;51.480;-0.862;2023-03-12T01:31:15;100151.37;;;7.26;100.00
49457;BME280;35352;51.480;-0.862;2023-03-12T01:33:44;100154.26;;;6.89;100.00
49457;BME280;35352;51.480;-0.862;2023-03-12T01:36:19;100161.52;;;7.27;100.00
49457;BME280;35352;51.480;-0.862;2023-03-12T01:38:49;100162.23;;;7.13;100.00
49457;BME280;35352;51.480;-0.862;2023-03-12T01:41:16;100170.74;;;6.57;100.00
49457;BME280;35352;51.480;-0.862;2023-03-12T01:43:44;100174.54;;;7.26;100.00
49457;BME280;35352;51.480;-0.862;2023-03-12T01:46:30;100173.82;;;7.21;100.00
49457;BME280;35352;51.480;-0.862;2023-03-12T01:49:02;100160.99;;;7.28;100.00
49457;BME280;35352;51.480;-0.862;2023-03-12T01:51:34;100164.75;;;6.12;100.00
49457;BME280;35352;51.480;-0.862;2023-03-12T01:54:08;100161.11;;;6.83;100.00
49457;BME280;35352;51.480;-0.862;2023-03-12T01:56:38;100159.78;;;7.28;100.00
49457;BME280;35352;51.480;-0.862;2023-03-12T01:59:11;100161.30;;;7.48;100.00
49457;BME280;35352;51.480;-0.862;2023-03-12T02:01:41;100158.25;;;7.40;100.00
49457;BME280;35352;51.480;-0.862;2023-03-12T02:04:09;100160.15;;;8.10;100.00
49457;BME280;35352;51.480;-0.862;2023-03-12T02:06:43;100159.57;;;7.84;100.00
49457;BME280;35352;51.480;-0.862;2023-03-12T02:09:16;100158.46;;;7.43;100.00
49457;BME280;35352;51.480;-0.862;2023-03-12T02:11:44;100163.71;;;7.56;100.00
49457;BME280;35352;51.480;-0.862;2023-03-12T02:14:11;100170.28;;;7.38;100.00
49457;BME280;35352;51.480;-0.862;2023-03-12T02:16:39;100168.62;;;7.26;100.00
49457;BME280;35352;51.480;-0.862;2023-03-12T02:19:11;100166.89;;;7.36;100.00
49457;BME280;35352;51.480;-0.862;2023-03-12T02:21:43;100162.03;;;7.64;100.00
49457;BME280;35352;51.480;-0.862;2023-03-12T02:24:16;100155.01;;;7.79;100.00
49457;BME280;35352;51.480;-0.862;2023-03-12T02:26:46;100146.86;;;8.41;100.00
49457;BME280;35352;51.480;-0.862;2023-03-12T02:29:13;100146.29;;;8.83;100.00
49457;BME280;35352;51.480;-0.862;2023-03-12T02:31:43;100142.69;;;8.52;100.00
49457;BME280;35352;51.480;-0.862;2023-03-12T02:34:11;100148.81;;;8.97;100.00
49457;BME280;35352;51.480;-0.862;2023-03-12T02:36:38;100146.00;;;6.95;100.00
49457;BME280;35352;51.480;-0.862;2023-03-12T02:39:08;100142.37;;;7.76;100.00
49457;BME280;35352;51.480;-0.862;2023-03-12T02:41:38;100146.99;;;8.08;100.00
49457;BME280;35352;51.480;-0.862;2023-03-12T02:44:09;100144.78;;;7.89;100.00
49457;BME280;35352;51.480;-0.862;2023-03-12T02:46:40;100149.05;;;8.55;100.00
49457;BME280;35352;51.480;-0.862;2023-03-12T02:49:08;100150.93;;;7.67;100.00
49457;BME280;35352;51.480;-0.862;2023-03-12T02:51:35;100150.61;;;8.30;100.00
49457;BME280;35352;51.480;-0.862;2023-03-12T02:54:02;100153.65;;;8.58;100.00
49457;BME280;35352;51.480;-0.862;2023-03-12T02:56:30;100153.66;;;8.21;100.00
49457;BME280;35352;51.480;-0.862;2023-03-12T02:58:58;100154.26;;;7.19;100.00
49457;BME280;35352;51.480;-0.862;2023-03-12T03:01:27;100156.84;;;6.93;100.00
49457;BME280;35352;51.480;-0.862;2023-03-12T03:04:00;100152.57;;;8.11;100.00
49457;BME280;35352;51.480;-0.862;2023-03-12T03:06:29;100155.71;;;5.94;100.00
49457;BME280;35352;51.480;-0.862;2023-03-12T03:08:57;100147.86;;;7.46;100.00
49457;BME280;35352;51.480;-0.862;2023-03-12T03:11:25;100149.99;;;5.71;100.00
49457;BME280;35352;51.480;-0.862;2023-03-12T03:13:53;100152.23;;;7.43;100.00
49457;BME280;35352;51.480;-0.862;2023-03-12T03:16:21;100153.02;;;8.31;100.00
49457;BME280;35352;51.480;-0.862;2023-03-12T03:18:50;100162.06;;;8.03;100.00
49457;BME280;35352;51.480;-0.862;2023-03-12T03:21:18;100170.49;;;8.05;100.00
49457;BME280;35352;51.480;-0.862;2023-03-12T03:23:48;100176.66;;;7.19;100.00
49457;BME280;35352;51.480;-0.862;2023-03-12T03:26:19;100179.26;;;7.25;100.00
49457;BME280;35352;51.480;-0.862;2023-03-12T03:28:48;100181.42;;;6.04;100.00
49457;BME280;35352;51.480;-0.862;2023-03-12T03:31:15;100187.21;;;7.17;100.00
49457;BME280;35352;51.480;-0.862;2023-03-12T03:33:43;100196.68;;;7.43;100.00
49457;BME280;35352;51.480;-0.862;2023-03-12T03:36:11;100208.15;;;7.50;100.00
49457;BME280;35352;51.480;-0.862;2023-03-12T03:38:39;100218.26;;;6.57;100.00
49457;BME280;35352;51.480;-0.862;2023-03-12T03:41:13;100220.87;;;7.87;100.00
49457;BME280;35352;51.480;-0.862;2023-03-12T03:43:41;100219.09;;;7.54;100.00
49457;BME280;35352;51.480;-0.862;2023-03-12T03:46:11;100223.51;;;6.15;100.00
49457;BME280;35352;51.480;-0.862;2023-03-12T03:48:38;100221.11;;;7.01;100.00
49457;BME280;35352;51.480;-0.862;2023-03-12T03:51:13;100223.01;;;6.95;100.00
49457;BME280;35352;51.480;-0.862;2023-03-12T03:53:40;100221.81;;;7.63;100.00
49457;BME280;35352;51.480;-0.862;2023-03-12T03:56:09;100227.91;;;6.47;100.00
49457;BME280;35352;51.480;-0.862;2023-03-12T03:58:37;100230.67;;;6.72;100.00
49457;BME280;35352;51.480;-0.862;2023-03-12T04:01:15;100234.44;;;7.37;100.00
49457;BME280;35352;51.480;-0.862;2023-03-12T04:03:42;100240.21;;;6.73;100.00
49457;BME280;35352;51.480;-0.862;2023-03-12T04:06:10;100237.56;;;7.30;100.00
49457;BME280;35352;51.480;-0.862;2023-03-12T04:08:38;100241.85;;;7.64;100.00
49457;BME280;35352;51.480;-0.862;2023-03-12T04:11:16;100248.10;;;7.72;100.00
49457;BME280;35352;51.480;-0.862;2023-03-12T04:13:46;100245.15;;;7.20;100.00
49457;BME280;35352;51.480;-0.862;2023-03-12T04:16:15;100240.17;;;7.28;100.00
49457;BME280;35352;51.480;-0.862;2023-03-12T04:18:43;100230.88;;;7.56;100.00
49457;BME280;35352;51.480;-0.862;2023-03-12T04:21:14;100227.40;;;7.98;100.00
49457;BME280;35352;51.480;-0.862;2023-03-12T04:23:42;100235.83;;;6.47;100.00
49457;BME280;35352;51.480;-0.862;2023-03-12T04:26:09;100240.83;;;6.72;100.00
49457;BME280;35352;51.480;-0.862;2023-03-12T04:28:37;100249.47;;;6.33;100.00
49457;BME280;35352;51.480;-0.862;2023-03-12T04:31:13;100259.80;;;6.81;100.00
49457;BME280;35352;51.480;-0.862;2023-03-12T04:33:41;100256.19;;;6.84;100.00
49457;BME280;35352;51.480;-0.862;2023-03-12T04:36:08;100252.75;;;6.73;100.00
49457;BME280;35352;51.480;-0.862;2023-03-12T04:38:36;100258.59;;;6.97;100.00
49457;BME280;35352;51.480;-0.862;2023-03-12T04:41:14;100259.34;;;7.16;100.00
49457;BME280;35352;51.480;-0.862;2023-03-12T04:43:42;100266.27;;;7.34;100.00
49457;BME280;35352;51.480;-0.862;2023-03-12T04:46:10;100276.89;;;6.18;100.00
49457;BME280;35352;51.480;-0.862;2023-03-12T04:48:38;100281.65;;;6.69;100.00
49457;BME280;35352;51.480;-0.862;2023-03-12T04:51:13;100285.99;;;6.46;100.00
49457;BME280;35352;51.480;-0.862;2023-03-12T04:53:41;100289.10;;;6.93;100.00
49457;BME280;35352;51.480;-0.862;2023-03-12T04:56:08;100293.30;;;6.61;100.00
49457;BME280;35352;51.480;-0.862;2023-03-12T04:58:36;100290.54;;;6.64;100.00
49457;BME280;35352;51.480;-0.862;2023-03-12T05:01:21;100294.18;;;6.75;100.00
49457;BME280;35352;51.480;-0.862;2023-03-12T05:03:49;100301.88;;;7.10;100.00
49457;BME280;35352;51.480;-0.862;2023-03-12T05:06:16;100312.45;;;6.91;100.00
49457;BME280;35352;51.480;-0.862;2023-03-12T05:08:44;100317.64;;;6.64;100.00
49457;BME280;35352;51.480;-0.862;2023-03-12T05:11:13;100311.90;;;6.96;100.00
49457;BME280;35352;51.480;-0.862;2023-03-12T05:13:41;100301.02;;;6.78;100.00
49457;BME280;35352;51.480;-0.862;2023-03-12T05:16:09;100303.99;;;6.73;100.00
49457;BME280;35352;51.480;-0.862;2023-03-12T05:18:37;100323.93;;;6.25;100.00
49457;BME280;35352;51.480;-0.862;2023-03-12T05:18:38;100324.87;;;6.49;100.00
49457;BME280;35352;51.480;-0.862;2023-03-12T05:21:15;100318.48;;;7.02;100.00
49457;BME280;35352;51.480;-0.862;2023-03-12T05:23:43;100311.19;;;6.80;100.00
49457;BME280;35352;51.480;-0.862;2023-03-12T05:26:18;100315.58;;;6.40;100.00
49457;BME280;35352;51.480;-0.862;2023-03-12T05:28:46;100312.92;;;6.59;100.00
49457;BME280;35352;51.480;-0.862;2023-03-12T05:31:13;100310.13;;;6.72;100.00
49457;BME280;35352;51.480;-0.862;2023-03-12T05:33:42;100312.63;;;6.83;100.00
49457;BME280;35352;51.480;-0.862;2023-03-12T05:36:11;100309.87;;;6.82;100.00
49457;BME280;35352;51.480;-0.862;2023-03-12T05:38:39;100306.66;;;6.35;100.00
49457;BME280;35352;51.480;-0.862;2023-03-12T05:41:18;100306.65;;;7.40;100.00
49457;BME280;35352;51.480;-0.862;2023-03-12T05:43:46;100304.03;;;7.79;100.00
49457;BME280;35352;51.480;-0.862;2023-03-12T05:46:14;100302.25;;;7.53;100.00
49457;BME280;35352;51.480;-0.862;2023-03-12T05:48:43;100304.67;;;7.49;100.00
49457;BME280;35352;51.480;-0.862;2023-03-12T05:51:14;100310.98;;;7.21;100.00
49457;BME280;35352;51.480;-0.862;2023-03-12T05:53:41;100303.20;;;7.06;100.00
49457;BME280;35352;51.480;-0.862;2023-03-12T05:56:12;100288.69;;;7.23;100.00
49457;BME280;35352;51.480;-0.862;2023-03-12T05:58:40;100289.39;;;7.03;100.00
49457;BME280;35352;51.480;-0.862;2023-03-12T06:01:15;100287.96;;;7.37;100.00
49457;BME280;35352;51.480;-0.862;2023-03-12T06:03:43;100298.00;;;6.72;100.00
49457;BME280;35352;51.480;-0.862;2023-03-12T06:06:11;100307.39;;;6.78;100.00
49457;BME280;35352;51.480;-0.862;2023-03-12T06:08:40;100306.93;;;6.74;100.00
49457;BME280;35352;51.480;-0.862;2023-03-12T06:11:15;100306.82;;;6.87;100.00
49457;BME280;35352;51.480;-0.862;2023-03-12T06:13:42;100302.01;;;6.64;100.00
49457;BME280;35352;51.480;-0.862;2023-03-12T06:16:15;100307.71;;;6.57;100.00
49457;BME280;35352;51.480;-0.862;2023-03-12T06:18:43;100313.63;;;6.93;100.00
49457;BME280;35352;51.480;-0.862;2023-03-12T06:21:15;100317.93;;;6.62;100.00
49457;BME280;35352;51.480;-0.862;2023-03-12T06:23:44;100327.78;;;6.86;100.00
49457;BME280;35352;51.480;-0.862;2023-03-12T06:26:12;100330.19;;;7.17;100.00
49457;BME280;35352;51.480;-0.862;2023-03-12T06:28:40;100330.96;;;7.44;100.00
49457;BME280;35352;51.480;-0.862;2023-03-12T06:31:13;100349.03;;;7.33;100.00
49457;BME280;35352;51.480;-0.862;2023-03-12T06:33:41;100364.51;;;7.13;100.00
49457;BME280;35352;51.480;-0.862;2023-03-12T06:36:10;100371.38;;;6.78;100.00
49457;BME280;35352;51.480;-0.862;2023-03-12T06:38:38;100372.39;;;6.33;100.00
49457;BME280;35352;51.480;-0.862;2023-03-12T06:41:15;100382.14;;;6.88;100.00
49457;BME280;35352;51.480;-0.862;2023-03-12T06:43:44;100385.50;;;6.75;100.00
49457;BME280;35352;51.480;-0.862;2023-03-12T06:46:14;100380.95;;;6.54;100.00
49457;BME280;35352;51.480;-0.862;2023-03-12T06:48:42;100380.35;;;6.46;100.00
49457;BME280;35352;51.480;-0.862;2023-03-12T06:51:15;100381.87;;;6.11;100.00
49457;BME280;35352;51.480;-0.862;2023-03-12T06:53:43;100375.40;;;6.08;100.00
49457;BME280;35352;51.480;-0.862;2023-03-12T06:56:11;100375.29;;;7.02;100.00
49457;BME280;35352;51.480;-0.862;2023-03-12T06:58:39;100370.37;;;7.63;100.00
49457;BME280;35352;51.480;-0.862;2023-03-12T07:01:13;100361.25;;;7.94;100.00
49457;BME280;35352;51.480;-0.862;2023-03-12T07:03:40;100364.42;;;7.68;100.00
49457;BME280;35352;51.480;-0.862;2023-03-12T07:06:14;100346.20;;;7.95;100.00
49457;BME280;35352;51.480;-0.862;2023-03-12T07:08:42;100346.66;;;7.44;100.00
49457;BME280;35352;51.480;-0.862;2023-03-12T07:11:13;100359.66;;;7.72;100.00
49457;BME280;35352;51.480;-0.862;2023-03-12T07:13:41;100356.57;;;7.02;100.00
49457;BME280;35352;51.480;-0.862;2023-03-12T07:16:08;100348.35;;;7.33;100.00
49457;BME280;35352;51.480;-0.862;2023-03-12T07:18:37;100347.09;;;6.95;100.00
49457;BME280;35352;51.480;-0.862;2023-03-12T07:21:13;100357.19;;;6.63;100.00
49457;BME280;35352;51.480;-0.862;2023-03-12T07:23:40;100352.91;;;7.00;100.00
49457;BME280;35352;51.480;-0.862;2023-03-12T07:26:07;100348.01;;;6.88;100.00
49457;BME280;35352;51.480;-0.862;2023-03-12T07:28:35;100354.99;;;7.07;100.00
49457;BME280;35352;51.480;-0.862;2023-03-12T07:31:13;100352.96;;;6.93;100.00
49457;BME280;35352;51.480;-0.862;2023-03-12T07:33:40;100364.17;;;6.94;100.00
49457;BME280;35352;51.480;-0.862;2023-03-12T07:36:07;100374.50;;;6.54;100.00
49457;BME280;35352;51.480;-0.862;2023-03-12T07:38:35;100369.22;;;6.52;100.00
49457;BME280;35352;51.480;-0.862;2023-03-12T07:41:13;100372.67;;;7.07;100.00
49457;BME280;35352;51.480;-0.862;2023-03-12T07:43:40;100368.70;;;6.91;100.00
49457;BME280;35352;51.480;-0.862;2023-03-12T07:46:07;100370.64;;;6.84;100.00
49457;BME280;35352;51.480;-0.862;2023-03-12T07:48:35;100377.66;;;7.77;100.00
49457;BME280;35352;51.480;-0.862;2023-03-12T07:51:13;100390.46;;;7.49;100.00
49457;BME280;35352;51.480;-0.862;2023-03-12T07:53:41;100395.88;;;6.98;100.00
49457;BME280;35352;51.480;-0.862;2023-03-12T07:56:08;100386.36;;;7.68;100.00
49457;BME280;35352;51.480;-0.862;2023-03-12T07:58:35;100382.32;;;7.89;100.00
49457;BME280;35352;51.480;-0.862;2023-03-12T08:01:15;100383.41;;;8.69;100.00
49457;BME280;35352;51.480;-0.862;2023-03-12T08:03:42;100384.91;;;8.91;100.00
49457;BME280;35352;51.480;-0.862;2023-03-12T08:06:10;100388.57;;;8.98;100.00
49457;BME280;35352;51.480;-0.862;2023-03-12T08:08:39;100382.25;;;8.75;100.00
49457;BME280;35352;51.480;-0.862;2023-03-12T08:11:13;100391.01;;;9.37;100.00
49457;BME280;35352;51.480;-0.862;2023-03-12T08:13:40;100394.28;;;9.61;100.00
49457;BME280;35352;51.480;-0.862;2023-03-12T08:16:08;100394.05;;;10.06;100.00
49457;BME280;35352;51.480;-0.862;2023-03-12T08:18:35;100392.38;;;8.36;100.00
49457;BME280;35352;51.480;-0.862;2023-03-12T08:21:13;100392.50;;;9.72;100.00
49457;BME280;35352;51.480;-0.862;2023-03-12T08:23:41;100394.28;;;8.12;100.00
49457;BME280;35352;51.480;-0.862;2023-03-12T08:26:08;100397.73;;;8.58;100.00
49457;BME280;35352;51.480;-0.862;2023-03-12T08:28:36;100392.26;;;9.34;100.00
49457;BME280;35352;51.480;-0.862;2023-03-12T08:31:13;100395.80;;;9.35;100.00
49457;BME280;35352;51.480;-0.862;2023-03-12T08:33:41;100406.94;;;7.36;100.00
49457;BME280;35352;51.480;-0.862;2023-03-12T08:36:08;100406.81;;;9.28;100.00
49457;BME280;35352;51.480;-0.862;2023-03-12T08:38:36;100417.12;;;9.07;100.00
49457;BME280;35352;51.480;-0.862;2023-03-12T08:41:13;100410.92;;;8.89;100.00
49457;BME280;35352;51.480;-0.862;2023-03-12T08:43:40;100422.44;;;9.36;100.00
49457;BME280;35352;51.480;-0.862;2023-03-12T08:46:08;100424.70;;;7.87;100.00
49457;BME280;35352;51.480;-0.862;2023-03-12T08:48:35;100423.25;;;8.13;100.00
49457;BME280;35352;51.480;-0.862;2023-03-12T08:51:13;100423.04;;;8.67;100.00
49457;BME280;35352;51.480;-0.862;2023-03-12T08:53:40;100423.65;;;9.54;100.00
49457;BME280;35352;51.480;-0.862;2023-03-12T08:56:07;100419.10;;;8.47;100.00
49457;BME280;35352;51.480;-0.862;2023-03-12T08:58:37;100421.89;;;8.11;100.00
49457;BME280;35352;51.480;-0.862;2023-03-12T09:01:13;100418.96;;;8.92;100.00
49457;BME280;35352;51.480;-0.862;2023-03-12T09:03:41;100421.00;;;8.83;100.00
49457;BME280;35352;51.480;-0.862;2023-03-12T09:06:10;100419.47;;;8.39;100.00
49457;BME280;35352;51.480;-0.862;2023-03-12T09:08:38;100411.93;;;8.80;100.00
49457;BME280;35352;51.480;-0.862;2023-03-12T09:11:14;100416.05;;;8.78;100.00
49457;BME280;35352;51.480;-0.862;2023-03-12T09:13:42;100419.05;;;9.16;100.00
49457;BME280;35352;51.480;-0.862;2023-03-12T09:16:09;100427.20;;;9.02;100.00
49457;BME280;35352;51.480;-0.862;2023-03-12T09:18:37;100426.30;;;8.00;100.00
49457;BME280;35352;51.480;-0.862;2023-03-12T09:21:13;100415.29;;;8.28;100.00
49457;BME280;35352;51.480;-0.862;2023-03-12T09:23:42;100409.56;;;7.98;100.00
49457;BME280;35352;51.480;-0.862;2023-03-12T09:26:11;100413.42;;;9.13;100.00
49457;BME280;35352;51.480;-0.862;2023-03-12T09:28:38;100416.28;;;6.57;100.00
49457;BME280;35352;51.480;-0.862;2023-03-12T09:31:13;100405.10;;;9.34;100.00
49457;BME280;35352;51.480;-0.862;2023-03-12T09:33:40;100400.68;;;9.40;100.00
49457;BME280;35352;51.480;-0.862;2023-03-12T09:36:08;100406.35;;;8.69;100.00
49457;BME280;35352;51.480;-0.862;2023-03-12T09:38:35;100407.49;;;9.41;100.00
49457;BME280;35352;51.480;-0.862;2023-03-12T09:41:18;100410.85;;;9.39;100.00
49457;BME280;35352;51.480;-0.862;2023-03-12T09:43:51;100412.28;;;9.59;100.00
49457;BME280;35352;51.480;-0.862;2023-03-12T09:46:25;100409.10;;;9.34;100.00
49457;BME280;35352;51.480;-0.862;2023-03-12T09:48:56;100407.03;;;7.90;100.00
49457;BME280;35352;51.480;-0.862;2023-03-12T09:51:31;100411.58;;;8.23;100.00
49457;BME280;35352;51.480;-0.862;2023-03-12T09:54:03;100411.18;;;8.46;100.00
49457;BME280;35352;51.480;-0.862;2023-03-12T09:56:32;100410.36;;;9.06;100.00
49457;BME280;35352;51.480;-0.862;2023-03-12T09:59:00;100405.49;;;8.89;100.00
49457;BME280;35352;51.480;-0.862;2023-03-12T10:01:36;100405.49;;;9.79;100.00
49457;BME280;35352;51.480;-0.862;2023-03-12T10:04:12;100404.96;;;7.62;100.00
49457;BME280;35352;51.480;-0.862;2023-03-12T10:06:46;100396.08;;;7.95;100.00
49457;BME280;35352;51.480;-0.862;2023-03-12T10:09:29;100390.74;;;10.06;100.00
49457;BME280;35352;51.480;-0.862;2023-03-12T10:12:06;100391.74;;;9.88;100.00
49457;BME280;35352;51.480;-0.862;2023-03-12T10:14:49;100390.46;;;8.34;100.00
49457;BME280;35352;51.480;-0.862;2023-03-12T10:17:34;100388.55;;;8.46;100.00
49457;BME280;35352;51.480;-0.862;2023-03-12T10:21:20;100377.88;;;7.71;100.00
49457;BME280;35352;51.480;-0.862;2023-03-12T10:24:01;100377.66;;;8.12;100.00
49457;BME280;35352;51.480;-0.862;2023-03-12T10:26:38;100375.09;;;8.76;100.00
49457;BME280;35352;51.480;-0.862;2023-03-12T10:29:12;100375.54;;;8.19;100.00
49457;BME280;35352;51.480;-0.862;2023-03-12T10:31:52;100380.80;;;8.69;100.00
49457;BME280;35352;51.480;-0.862;2023-03-12T10:34:29;100375.20;;;8.28;100.00
49457;BME280;35352;51.480;-0.862;2023-03-12T10:36:59;100372.27;;;8.40;100.00
49457;BME280;35352;51.480;-0.862;2023-03-12T10:39:29;100379.30;;;9.31;100.00
49457;BME280;35352;51.480;-0.862;2023-03-12T10:41:59;100375.47;;;7.73;100.00
49457;BME280;35352;51.480;-0.862;2023-03-12T10:44:26;100375.18;;;7.89;100.00
49457;BME280;35352;51.480;-0.862;2023-03-12T10:47:06;100369.66;;;8.84;100.00
49457;BME280;35352;51.480;-0.862;2023-03-12T10:49:35;100372.85;;;7.64;100.00
49457;BME280;35352;51.480;-0.862;2023-03-12T10:52:08;100368.95;;;7.89;100.00
49457;BME280;35352;51.480;-0.862;2023-03-12T10:54:42;100369.55;;;8.84;100.00
49457;BME280;35352;51.480;-0.862;2023-03-12T10:57:11;100365.46;;;9.90;100.00
49457;BME280;35352;51.480;-0.862;2023-03-12T10:59:41;100358.43;;;10.34;100.00
49457;BME280;35352;51.480;-0.862;2023-03-12T11:03:19;100351.75;;;8.76;100.00
49457;BME280;35352;51.480;-0.862;2023-03-12T11:05:49;100345.00;;;8.32;100.00
49457;BME280;35352;51.480;-0.862;2023-03-12T11:08:20;100343.86;;;9.45;100.00
49457;BME280;35352;51.480;-0.862;2023-03-12T11:11:29;100335.61;;;8.37;100.00
49457;BME280;35352;51.480;-0.862;2023-03-12T11:14:07;100334.45;;;9.73;100.00
49457;BME280;35352;51.480;-0.862;2023-03-12T11:16:34;100335.55;;;8.65;100.00
49457;BME280;35352;51.480;-0.862;2023-03-12T11:19:03;100334.72;;;8.20;100.00
49457;BME280;35352;51.480;-0.862;2023-03-12T11:21:33;100331.56;;;8.91;100.00
49457;BME280;35352;51.480;-0.862;2023-03-12T11:24:08;100331.25;;;9.13;100.00
49457;BME280;35352;51.480;-0.862;2023-03-12T11:26:46;100321.32;;;9.87;100.00
49457;BME280;35352;51.480;-0.862;2023-03-12T11:29:25;100320.47;;;9.72;100.00
49457;BME280;35352;51.480;-0.862;2023-03-12T11:32:01;100320.82;;;9.09;100.00
49457;BME280;35352;51.480;-0.862;2023-03-12T11:34:34;100318.61;;;9.88;100.00
49457;BME280;35352;51.480;-0.862;2023-03-12T11:37:10;100320.31;;;10.65;100.00
49457;BME280;35352;51.480;-0.862;2023-03-12T11:39:50;100321.20;;;11.48;100.00
49457;BME280;35352;51.480;-0.862;2023-03-12T11:42:38;100321.52;;;9.67;100.00
49457;BME280;35352;51.480;-0.862;2023-03-12T11:45:21;100323.47;;;8.32;100.00
49457;BME280;35352;51.480;-0.862;2023-03-12T11:48:03;100316.24;;;9.90;100.00
49457;BME280;35352;51.480;-0.862;2023-03-12T11:51:21;100303.94;;;10.70;100.00
49457;BME280;35352;51.480;-0.862;2023-03-12T11:54:04;100291.42;;;9.81;100.00
49457;BME280;35352;51.480;-0.862;2023-03-12T11:56:37;100294.79;;;9.70;100.00
49457;BME280;35352;51.480;-0.862;2023-03-12T11:59:20;100299.01;;;9.97;100.00
49457;BME280;35352;51.480;-0.862;2023-03-12T12:02:03;100291.41;;;11.48;100.00
49457;BME280;35352;51.480;-0.862;2023-03-12T12:04:57;100287.16;;;9.56;100.00
49457;BME280;35352;51.480;-0.862;2023-03-12T12:07:41;100278.47;;;9.96;100.00
49457;BME280;35352;51.480;-0.862;2023-03-12T12:11:18;100280.39;;;11.24;100.00
49457;BME280;35352;51.480;-0.862;2023-03-12T12:13:59;100277.39;;;9.81;100.00
49457;BME280;35352;51.480;-0.862;2023-03-12T12:16:44;100272.05;;;10.82;100.00
49457;BME280;35352;51.480;-0.862;2023-03-12T12:19:23;100267.24;;;10.54;100.00
49457;BME280;35352;51.480;-0.862;2023-03-12T12:22:02;100270.46;;;10.12;100.00
49457;BME280;35352;51.480;-0.862;2023-03-12T12:24:41;100263.43;;;10.94;100.00
49457;BME280;35352;51.480;-0.862;2023-03-12T12:27:18;100270.60;;;11.05;100.00
49457;BME280;35352;51.480;-0.862;2023-03-12T12:30:22;100262.00;;;10.81;100.00
49457;BME280;35352;51.480;-0.862;2023-03-12T12:33:03;100256.74;;;11.80;100.00
49457;BME280;35352;51.480;-0.862;2023-03-12T12:35:34;100258.88;;;10.11;100.00
49457;BME280;35352;51.480;-0.862;2023-03-12T12:38:06;100257.12;;;10.11;100.00
49457;BME280;35352;51.480;-0.862;2023-03-12T12:41:15;100252.26;;;10.72;100.00
49457;BME280;35352;51.480;-0.862;2023-03-12T12:43:47;100249.43;;;10.89;100.00
49457;BME280;35352;51.480;-0.862;2023-03-12T12:46:18;100246.85;;;10.86;100.00
49457;BME280;35352;51.480;-0.862;2023-03-12T12:48:50;100237.86;;;11.68;100.00
49457;BME280;35352;51.480;-0.862;2023-03-12T12:51:22;100239.44;;;11.88;100.00
49457;BME280;35352;51.480;-0.862;2023-03-12T12:53:54;100233.47;;;11.22;100.00
49457;BME280;35352;51.480;-0.862;2023-03-12T12:56:30;100244.44;;;11.37;100.00
49457;BME280;35352;51.480;-0.862;2023-03-12T12:59:08;100242.09;;;11.43;100.00
49457;BME280;35352;51.480;-0.862;2023-03-12T13:01:43;100235.93;;;10.29;100.00